QTR455 OSDI-LGAV
Flight info
| Callsign | QTR455 |
|---|---|
| Flight time | N/A |
| Altitude | 40000 |
| Route | LEBOR UR655 BALMA M601 EVENO UM601 RDS UL995 VARIX |
| Aircraft | B77W/H-SDE1E2E3FGHIJ2J3J4J5M1RWXY/LB1D1 |
Departure
| Time | 2026-04-23 10:09 |
|---|---|
| Airport | Damascus International Airport (OSDI) |
Arrival
| Time | N/A |
|---|---|
| Airport | Athens Eleftherios Venizelos International Airport (LGAV) |
| Time | Latitude | Longitude | Altitude | Speed | Heading |
|---|---|---|---|---|---|
| 2026-04-23 10:09 | 33.26546 | 36.44166 | 12538 ft | 225 kts | 204° |
| 2026-04-23 10:09 | 33.25272 | 36.43155 | 13279 ft | 224 kts | 233° |
| 2026-04-23 10:09 | 33.24544 | 36.41540 | 14172 ft | 222 kts | 256° |
| 2026-04-23 10:09 | 33.24467 | 36.39709 | 14967 ft | 225 kts | 281° |
| 2026-04-23 10:10 | 33.25105 | 36.37978 | 15745 ft | 233 kts | 306° |
| 2026-04-23 10:10 | 33.26394 | 36.36755 | 16539 ft | 245 kts | 334° |
| 2026-04-23 10:10 | 33.28109 | 36.36428 | 17327 ft | 259 kts | 4° |
| 2026-04-23 10:10 | 33.29794 | 36.37270 | 18107 ft | 272 kts | 39° |
| 2026-04-23 10:11 | 33.31081 | 36.38957 | 18766 ft | 279 kts | 49° |
| 2026-04-23 10:11 | 33.32314 | 36.40789 | 19449 ft | 284 kts | 49° |
| 2026-04-23 10:11 | 33.33568 | 36.42636 | 20222 ft | 287 kts | 49° |
| 2026-04-23 10:11 | 33.34844 | 36.44488 | 20985 ft | 291 kts | 49° |
| 2026-04-23 10:12 | 33.36155 | 36.46376 | 21632 ft | 303 kts | 49° |
| 2026-04-23 10:12 | 33.37728 | 36.48122 | 21909 ft | 317 kts | 24° |
| 2026-04-23 10:12 | 33.39889 | 36.48811 | 22133 ft | 331 kts | 357° |
| 2026-04-23 10:12 | 33.42244 | 36.48686 | 22358 ft | 356 kts | 351° |
| 2026-04-23 10:13 | 33.44807 | 36.48480 | 22571 ft | 384 kts | 354° |
| 2026-04-23 10:13 | 33.47582 | 36.48448 | 22762 ft | 412 kts | 358° |
| 2026-04-23 10:13 | 33.50545 | 36.48629 | 22946 ft | 438 kts | 1° |
| 2026-04-23 10:13 | 33.53641 | 36.48976 | 23373 ft | 455 kts | 3° |
| 2026-04-23 10:14 | 33.56830 | 36.49401 | 23929 ft | 465 kts | 3° |
| 2026-04-23 10:14 | 33.60064 | 36.49832 | 24586 ft | 470 kts | 3° |
| 2026-04-23 10:14 | 33.63327 | 36.50258 | 25334 ft | 472 kts | 3° |
| 2026-04-23 10:14 | 33.66608 | 36.50689 | 26039 ft | 476 kts | 2° |
| 2026-04-23 10:15 | 33.69918 | 36.51126 | 26691 ft | 481 kts | 2° |
| 2026-04-23 10:15 | 33.73263 | 36.51568 | 27274 ft | 486 kts | 2° |
| 2026-04-23 10:15 | 33.76644 | 36.52015 | 27863 ft | 491 kts | 2° |
| 2026-04-23 10:15 | 33.80052 | 36.52466 | 28452 ft | 495 kts | 2° |
| 2026-04-23 10:16 | 33.83489 | 36.52921 | 29016 ft | 499 kts | 2° |
| 2026-04-23 10:16 | 33.86909 | 36.53370 | 29524 ft | 502 kts | 2° |
| 2026-04-23 10:16 | 33.90445 | 36.53814 | 30015 ft | 506 kts | 2° |
| 2026-04-23 10:16 | 33.93903 | 36.54238 | 30499 ft | 507 kts | 1° |
| 2026-04-23 10:17 | 33.97405 | 36.54667 | 31073 ft | 505 kts | 1° |
| 2026-04-23 10:17 | 34.00898 | 36.55098 | 31666 ft | 504 kts | 1° |
| 2026-04-23 10:17 | 34.04384 | 36.55530 | 32231 ft | 503 kts | 1° |
| 2026-04-23 10:17 | 34.07867 | 36.55963 | 32763 ft | 502 kts | 0° |
| 2026-04-23 10:18 | 34.11344 | 36.56397 | 33263 ft | 502 kts | 0° |
| 2026-04-23 10:18 | 34.14800 | 36.56691 | 33660 ft | 494 kts | 352° |
| 2026-04-23 10:18 | 34.18127 | 36.55983 | 33997 ft | 480 kts | 334° |
| 2026-04-23 10:18 | 34.21043 | 36.54186 | 34488 ft | 463 kts | 318° |
| 2026-04-23 10:19 | 34.23393 | 36.51616 | 34977 ft | 451 kts | 305° |
| 2026-04-23 10:19 | 34.25196 | 36.48560 | 35429 ft | 443 kts | 296° |
| 2026-04-23 10:19 | 34.26572 | 36.45252 | 35831 ft | 438 kts | 288° |
| 2026-04-23 10:19 | 34.27345 | 36.41727 | 36208 ft | 430 kts | 273° |
| 2026-04-23 10:20 | 34.27509 | 36.38121 | 36498 ft | 430 kts | 270° |
| 2026-04-23 10:20 | 34.27598 | 36.34512 | 36866 ft | 430 kts | 270° |
| 2026-04-23 10:20 | 34.27680 | 36.30907 | 37299 ft | 428 kts | 270° |
| 2026-04-23 10:20 | 34.27774 | 36.27320 | 37723 ft | 426 kts | 270° |
| 2026-04-23 10:21 | 34.27882 | 36.23732 | 37902 ft | 428 kts | 270° |
| 2026-04-23 10:21 | 34.28001 | 36.20183 | 37947 ft | 428 kts | 271° |
| 2026-04-23 10:21 | 34.28256 | 36.12996 | 37953 ft | 427 kts | 271° |
| 2026-04-23 10:22 | 34.28506 | 36.05827 | 37979 ft | 427 kts | 271° |
| 2026-04-23 10:22 | 34.28754 | 35.98654 | 37981 ft | 427 kts | 271° |
| 2026-04-23 10:23 | 34.29091 | 35.91482 | 37985 ft | 427 kts | 272° |
| 2026-04-23 10:23 | 34.29442 | 35.84306 | 37985 ft | 427 kts | 271° |
| 2026-04-23 10:24 | 34.29776 | 35.77132 | 37986 ft | 427 kts | 271° |
| 2026-04-23 10:24 | 34.30450 | 35.69988 | 37985 ft | 429 kts | 278° |
| 2026-04-23 10:25 | 34.32010 | 35.63044 | 37991 ft | 432 kts | 285° |
| 2026-04-23 10:25 | 34.33959 | 35.56165 | 37986 ft | 433 kts | 286° |
| 2026-04-23 10:26 | 34.35918 | 35.49271 | 37989 ft | 433 kts | 285° |
| 2026-04-23 10:26 | 34.37857 | 35.42370 | 37985 ft | 433 kts | 285° |
| 2026-04-23 10:27 | 34.39463 | 35.36617 | 37989 ft | 433 kts | 285° |
| 2026-04-23 10:27 | 34.41390 | 35.29695 | 37981 ft | 434 kts | 285° |
| 2026-04-23 10:28 | 34.43315 | 35.22764 | 37982 ft | 434 kts | 285° |
| 2026-04-23 10:28 | 34.45237 | 35.15828 | 37985 ft | 434 kts | 285° |
| 2026-04-23 10:29 | 34.47159 | 35.08878 | 37986 ft | 435 kts | 285° |
| 2026-04-23 10:29 | 34.49085 | 35.01928 | 37981 ft | 435 kts | 285° |
| 2026-04-23 10:30 | 34.51028 | 34.95035 | 37984 ft | 435 kts | 286° |
| 2026-04-23 10:30 | 34.52987 | 34.88087 | 37982 ft | 435 kts | 286° |
| 2026-04-23 10:31 | 34.54938 | 34.81136 | 37979 ft | 435 kts | 285° |
| 2026-04-23 10:31 | 34.56882 | 34.74180 | 37978 ft | 435 kts | 285° |
| 2026-04-23 10:32 | 34.58823 | 34.67219 | 37980 ft | 435 kts | 285° |
| 2026-04-23 10:32 | 34.60759 | 34.60256 | 37978 ft | 435 kts | 285° |
| 2026-04-23 10:33 | 34.62692 | 34.53287 | 37977 ft | 435 kts | 285° |
| 2026-04-23 10:33 | 34.64610 | 34.46357 | 37975 ft | 435 kts | 285° |
| 2026-04-23 10:34 | 34.66537 | 34.39375 | 37979 ft | 436 kts | 285° |
| 2026-04-23 10:34 | 34.68461 | 34.32389 | 37978 ft | 436 kts | 286° |
| 2026-04-23 10:35 | 34.70379 | 34.25405 | 37978 ft | 436 kts | 285° |
| 2026-04-23 10:35 | 34.72293 | 34.18415 | 37976 ft | 436 kts | 286° |
| 2026-04-23 10:36 | 34.74204 | 34.11425 | 37975 ft | 436 kts | 285° |
| 2026-04-23 10:36 | 34.76084 | 34.04414 | 37978 ft | 436 kts | 285° |
| 2026-04-23 10:37 | 34.77931 | 33.97434 | 37971 ft | 436 kts | 285° |
| 2026-04-23 10:37 | 34.79799 | 33.90417 | 37969 ft | 436 kts | 285° |
| 2026-04-23 10:38 | 34.81697 | 33.83410 | 37967 ft | 436 kts | 286° |
| 2026-04-23 10:38 | 34.83595 | 33.76396 | 37970 ft | 436 kts | 286° |
| 2026-04-23 10:39 | 34.85483 | 33.69379 | 37964 ft | 436 kts | 285° |
| 2026-04-23 10:39 | 34.87364 | 33.62367 | 37966 ft | 436 kts | 286° |
| 2026-04-23 10:40 | 34.89385 | 33.55398 | 37969 ft | 436 kts | 288° |
| 2026-04-23 10:40 | 34.91454 | 33.48452 | 37951 ft | 436 kts | 287° |
| 2026-04-23 10:41 | 34.93475 | 33.41528 | 37962 ft | 436 kts | 287° |
| 2026-04-23 10:41 | 34.95473 | 33.34547 | 37972 ft | 436 kts | 287° |
| 2026-04-23 10:42 | 34.97483 | 33.27571 | 37956 ft | 436 kts | 287° |
| 2026-04-23 10:42 | 34.99514 | 33.20613 | 37955 ft | 436 kts | 287° |
| 2026-04-23 10:43 | 35.01537 | 33.13643 | 37974 ft | 436 kts | 287° |
| 2026-04-23 10:43 | 35.03539 | 33.06663 | 37965 ft | 435 kts | 287° |
| 2026-04-23 10:44 | 35.05535 | 32.99684 | 37959 ft | 435 kts | 287° |
| 2026-04-23 10:44 | 35.07524 | 32.92714 | 37969 ft | 435 kts | 287° |
| 2026-04-23 10:45 | 35.09429 | 32.85694 | 37968 ft | 435 kts | 286° |
| 2026-04-23 10:45 | 35.11289 | 32.78678 | 37969 ft | 434 kts | 286° |
| 2026-04-23 10:46 | 35.13154 | 32.71652 | 37968 ft | 434 kts | 286° |
| 2026-04-23 10:46 | 35.15009 | 32.64679 | 37969 ft | 434 kts | 286° |
| 2026-04-23 10:47 | 35.16874 | 32.57663 | 37982 ft | 434 kts | 286° |
| 2026-04-23 10:47 | 35.18736 | 32.50639 | 37964 ft | 434 kts | 286° |
| 2026-04-23 10:48 | 35.20590 | 32.43621 | 37967 ft | 434 kts | 286° |
| 2026-04-23 10:48 | 35.22440 | 32.36604 | 37965 ft | 433 kts | 286° |
| 2026-04-23 10:49 | 35.24285 | 32.29586 | 37965 ft | 433 kts | 286° |
| 2026-04-23 10:49 | 35.26115 | 32.22605 | 37961 ft | 433 kts | 286° |
| 2026-04-23 10:50 | 35.27954 | 32.15572 | 37966 ft | 433 kts | 286° |
| 2026-04-23 10:50 | 35.29785 | 32.08553 | 37963 ft | 433 kts | 286° |
| 2026-04-23 10:51 | 35.31623 | 32.01522 | 37966 ft | 433 kts | 286° |
| 2026-04-23 10:51 | 35.33475 | 31.94505 | 37959 ft | 433 kts | 286° |
| 2026-04-23 10:52 | 35.35312 | 31.87531 | 37962 ft | 433 kts | 286° |
| 2026-04-23 10:52 | 35.37155 | 31.80506 | 37961 ft | 433 kts | 286° |
| 2026-04-23 10:53 | 35.38992 | 31.73479 | 37961 ft | 432 kts | 286° |
| 2026-04-23 10:53 | 35.40824 | 31.66450 | 37959 ft | 432 kts | 286° |
| 2026-04-23 10:54 | 35.42639 | 31.59467 | 37964 ft | 432 kts | 286° |
| 2026-04-23 10:54 | 35.44462 | 31.52438 | 37957 ft | 432 kts | 286° |
| 2026-04-23 10:55 | 35.46281 | 31.45406 | 37961 ft | 432 kts | 286° |
| 2026-04-23 10:55 | 35.48095 | 31.38374 | 37956 ft | 432 kts | 286° |
| 2026-04-23 10:56 | 35.49907 | 31.31327 | 37956 ft | 432 kts | 286° |
| 2026-04-23 10:56 | 35.51700 | 31.24337 | 37951 ft | 432 kts | 286° |
| 2026-04-23 10:57 | 35.53500 | 31.17303 | 37948 ft | 432 kts | 286° |
| 2026-04-23 10:57 | 35.55298 | 31.10256 | 37954 ft | 432 kts | 286° |
| 2026-04-23 10:58 | 35.57089 | 31.03215 | 37952 ft | 432 kts | 286° |
| 2026-04-23 10:58 | 35.58875 | 30.96176 | 37951 ft | 432 kts | 285° |
| 2026-04-23 10:59 | 35.60659 | 30.89127 | 37949 ft | 432 kts | 285° |
| 2026-04-23 10:59 | 35.62446 | 30.82075 | 37950 ft | 432 kts | 286° |
| 2026-04-23 11:00 | 35.64247 | 30.75091 | 37946 ft | 432 kts | 286° |
| 2026-04-23 11:00 | 35.66061 | 30.68059 | 37943 ft | 431 kts | 286° |
| 2026-04-23 11:01 | 35.67867 | 30.61022 | 37947 ft | 431 kts | 286° |
| 2026-04-23 11:01 | 35.69667 | 30.53981 | 37939 ft | 431 kts | 286° |
| 2026-04-23 11:02 | 35.71462 | 30.46939 | 37938 ft | 432 kts | 286° |
| 2026-04-23 11:02 | 35.73258 | 30.39877 | 37934 ft | 432 kts | 286° |
| 2026-04-23 11:03 | 35.75045 | 30.32823 | 37942 ft | 432 kts | 286° |
| 2026-04-23 11:03 | 35.76833 | 30.25751 | 37945 ft | 432 kts | 286° |
| 2026-04-23 11:04 | 35.78602 | 30.18733 | 37940 ft | 432 kts | 285° |
| 2026-04-23 11:04 | 35.80379 | 30.11665 | 37937 ft | 431 kts | 285° |
| 2026-04-23 11:05 | 35.82150 | 30.04604 | 37934 ft | 431 kts | 285° |
| 2026-04-23 11:05 | 35.83938 | 29.97545 | 37936 ft | 431 kts | 287° |
| 2026-04-23 11:06 | 35.86827 | 29.87055 | 37938 ft | 431 kts | 287° |
| 2026-04-23 11:07 | 35.88838 | 29.80097 | 37936 ft | 431 kts | 290° |
| 2026-04-23 11:07 | 35.91115 | 29.73250 | 37937 ft | 431 kts | 290° |
| 2026-04-23 11:08 | 35.93406 | 29.66471 | 37934 ft | 430 kts | 290° |
| 2026-04-23 11:08 | 35.95694 | 29.59630 | 37938 ft | 430 kts | 290° |
| 2026-04-23 11:09 | 35.97959 | 29.52791 | 37938 ft | 430 kts | 290° |
| 2026-04-23 11:09 | 36.00215 | 29.45949 | 37935 ft | 430 kts | 290° |
| 2026-04-23 11:10 | 36.02465 | 29.39104 | 37934 ft | 430 kts | 290° |
| 2026-04-23 11:10 | 36.04710 | 29.32262 | 37936 ft | 430 kts | 290° |
| 2026-04-23 11:11 | 36.06954 | 29.25410 | 37930 ft | 430 kts | 290° |
| 2026-04-23 11:11 | 36.09180 | 29.18594 | 37934 ft | 430 kts | 290° |
| 2026-04-23 11:12 | 36.11413 | 29.11743 | 37932 ft | 430 kts | 290° |
| 2026-04-23 11:12 | 36.13642 | 29.04889 | 37935 ft | 430 kts | 290° |
| 2026-04-23 11:13 | 36.15869 | 28.98022 | 37929 ft | 429 kts | 290° |
| 2026-04-23 11:13 | 36.18093 | 28.91150 | 37928 ft | 429 kts | 290° |
| 2026-04-23 11:14 | 36.19935 | 28.85448 | 37923 ft | 429 kts | 289° |
| 2026-04-23 11:14 | 36.22147 | 28.78584 | 37921 ft | 429 kts | 289° |
| 2026-04-23 11:15 | 36.24714 | 28.70597 | 37917 ft | 429 kts | 289° |
| 2026-04-23 11:15 | 36.26560 | 28.64842 | 37914 ft | 429 kts | 289° |
| 2026-04-23 11:16 | 36.28762 | 28.57961 | 37909 ft | 429 kts | 289° |
| 2026-04-23 11:16 | 36.30957 | 28.51085 | 37913 ft | 429 kts | 289° |
| 2026-04-23 11:17 | 36.32781 | 28.45360 | 37909 ft | 429 kts | 289° |
| 2026-04-23 11:17 | 36.34474 | 28.40036 | 37910 ft | 429 kts | 289° |
| 2026-04-23 11:18 | 36.36657 | 28.33156 | 37909 ft | 429 kts | 289° |
| 2026-04-23 11:18 | 36.38838 | 28.26265 | 37911 ft | 429 kts | 289° |
| 2026-04-23 11:19 | 36.41014 | 28.19373 | 37912 ft | 429 kts | 289° |
| 2026-04-23 11:19 | 36.43189 | 28.12471 | 37908 ft | 429 kts | 289° |
| 2026-04-23 11:20 | 36.45356 | 28.05578 | 38009 ft | 429 kts | 288° |
| 2026-04-23 11:20 | 36.47516 | 27.98689 | 37914 ft | 427 kts | 288° |
| 2026-04-23 11:21 | 36.49654 | 27.91852 | 37920 ft | 426 kts | 288° |
| 2026-04-23 11:21 | 36.51798 | 27.84982 | 37911 ft | 427 kts | 288° |
| 2026-04-23 11:22 | 36.53940 | 27.78098 | 37915 ft | 427 kts | 288° |
| 2026-04-23 11:22 | 36.56081 | 27.71203 | 37919 ft | 427 kts | 288° |
| 2026-04-23 11:23 | 36.58213 | 27.64324 | 37916 ft | 426 kts | 288° |
| 2026-04-23 11:23 | 36.60345 | 27.57427 | 37916 ft | 426 kts | 288° |
| 2026-04-23 11:24 | 36.62459 | 27.50568 | 37926 ft | 426 kts | 288° |
| 2026-04-23 11:24 | 36.64579 | 27.43675 | 37928 ft | 426 kts | 288° |
| 2026-04-23 11:25 | 36.66693 | 27.36785 | 37930 ft | 426 kts | 288° |
| 2026-04-23 11:25 | 36.68805 | 27.29886 | 37933 ft | 426 kts | 288° |
| 2026-04-23 11:26 | 36.70911 | 27.22989 | 37935 ft | 425 kts | 288° |
| 2026-04-23 11:26 | 36.73009 | 27.16100 | 37937 ft | 425 kts | 288° |
| 2026-04-23 11:27 | 36.75092 | 27.09246 | 37943 ft | 425 kts | 288° |
| 2026-04-23 11:27 | 36.77182 | 27.02349 | 37943 ft | 425 kts | 288° |
| 2026-04-23 11:28 | 36.79267 | 26.95455 | 37949 ft | 425 kts | 288° |
| 2026-04-23 11:28 | 36.81350 | 26.88550 | 37941 ft | 425 kts | 287° |
| 2026-04-23 11:29 | 36.83425 | 26.81654 | 37943 ft | 425 kts | 287° |
| 2026-04-23 11:29 | 36.85499 | 26.74743 | 37950 ft | 425 kts | 287° |
| 2026-04-23 11:30 | 36.87570 | 26.67826 | 37958 ft | 425 kts | 287° |
| 2026-04-23 11:30 | 36.89635 | 26.60912 | 37958 ft | 425 kts | 287° |
| 2026-04-23 11:31 | 36.91697 | 26.53990 | 37963 ft | 425 kts | 287° |
| 2026-04-23 11:31 | 36.93755 | 26.47066 | 37965 ft | 425 kts | 287° |
| 2026-04-23 11:32 | 36.95792 | 26.40194 | 37965 ft | 424 kts | 287° |
| 2026-04-23 11:32 | 36.97843 | 26.33259 | 37963 ft | 424 kts | 287° |
| 2026-04-23 11:33 | 36.99887 | 26.26330 | 37966 ft | 424 kts | 287° |
| 2026-04-23 11:33 | 37.01927 | 26.19396 | 37968 ft | 424 kts | 287° |
| 2026-04-23 11:34 | 37.03959 | 26.12472 | 37965 ft | 424 kts | 287° |
| 2026-04-23 11:34 | 37.05987 | 26.05546 | 37971 ft | 424 kts | 287° |
| 2026-04-23 11:35 | 37.08013 | 25.98607 | 37973 ft | 424 kts | 287° |
| 2026-04-23 11:35 | 37.10034 | 25.91669 | 37972 ft | 424 kts | 287° |
| 2026-04-23 11:36 | 37.12036 | 25.84778 | 37978 ft | 424 kts | 287° |
| 2026-04-23 11:36 | 37.14049 | 25.77832 | 37980 ft | 424 kts | 287° |
| 2026-04-23 11:37 | 37.16054 | 25.70897 | 37980 ft | 420 kts | 287° |
| 2026-04-23 11:37 | 37.17039 | 25.67490 | 37842 ft | 411 kts | 287° |
| 2026-04-23 11:37 | 37.18012 | 25.64118 | 37228 ft | 410 kts | 287° |
| 2026-04-23 11:37 | 37.18975 | 25.60771 | 36579 ft | 407 kts | 287° |
| 2026-04-23 11:38 | 37.19935 | 25.57428 | 35856 ft | 407 kts | 287° |
| 2026-04-23 11:38 | 37.20896 | 25.54076 | 35024 ft | 409 kts | 286° |
| 2026-04-23 11:38 | 37.21859 | 25.50713 | 34199 ft | 411 kts | 286° |
| 2026-04-23 11:38 | 37.22828 | 25.47323 | 33221 ft | 413 kts | 286° |
| 2026-04-23 11:39 | 37.23801 | 25.43917 | 32237 ft | 415 kts | 286° |
| 2026-04-23 11:39 | 37.24776 | 25.40502 | 31237 ft | 417 kts | 286° |
| 2026-04-23 11:39 | 37.25755 | 25.37069 | 30435 ft | 416 kts | 286° |
| 2026-04-23 11:39 | 37.26714 | 25.33710 | 29632 ft | 413 kts | 286° |
| 2026-04-23 11:40 | 37.27692 | 25.30278 | 28831 ft | 410 kts | 286° |
| 2026-04-23 11:40 | 37.28631 | 25.26978 | 28132 ft | 405 kts | 286° |
| 2026-04-23 11:40 | 37.29574 | 25.23662 | 27438 ft | 401 kts | 286° |
| 2026-04-23 11:40 | 37.30505 | 25.20377 | 26747 ft | 397 kts | 286° |
| 2026-04-23 11:41 | 37.31429 | 25.17116 | 26075 ft | 394 kts | 286° |
| 2026-04-23 11:41 | 37.32343 | 25.13885 | 25446 ft | 390 kts | 286° |
| 2026-04-23 11:41 | 37.33247 | 25.10684 | 24792 ft | 387 kts | 286° |
| 2026-04-23 11:41 | 37.34145 | 25.07503 | 24147 ft | 385 kts | 286° |
| 2026-04-23 11:42 | 37.35036 | 25.04340 | 23472 ft | 383 kts | 286° |
| 2026-04-23 11:42 | 37.35920 | 25.01196 | 22746 ft | 380 kts | 286° |
| 2026-04-23 11:42 | 37.36799 | 24.98073 | 22072 ft | 376 kts | 286° |
| 2026-04-23 11:42 | 37.37665 | 24.94991 | 21435 ft | 372 kts | 286° |
| 2026-04-23 11:43 | 37.38522 | 24.91935 | 20829 ft | 369 kts | 286° |
| 2026-04-23 11:43 | 37.39370 | 24.88909 | 20226 ft | 365 kts | 286° |
| 2026-04-23 11:43 | 37.40210 | 24.85909 | 19623 ft | 363 kts | 286° |
| 2026-04-23 11:43 | 37.41043 | 24.82927 | 19033 ft | 360 kts | 286° |
| 2026-04-23 11:44 | 37.41859 | 24.80007 | 18451 ft | 358 kts | 286° |
| 2026-04-23 11:44 | 37.42681 | 24.77058 | 17792 ft | 355 kts | 286° |
| 2026-04-23 11:44 | 37.43496 | 24.74132 | 17169 ft | 353 kts | 286° |
| 2026-04-23 11:44 | 37.44304 | 24.71227 | 16569 ft | 350 kts | 287° |
| 2026-04-23 11:45 | 37.45104 | 24.68349 | 15989 ft | 347 kts | 287° |
| 2026-04-23 11:45 | 37.45899 | 24.65487 | 15417 ft | 345 kts | 287° |
| 2026-04-23 11:45 | 37.46688 | 24.62643 | 14858 ft | 343 kts | 287° |
| 2026-04-23 11:45 | 37.47472 | 24.59812 | 14302 ft | 342 kts | 287° |
| 2026-04-23 11:46 | 37.48253 | 24.56990 | 13727 ft | 341 kts | 287° |
| 2026-04-23 11:46 | 37.49021 | 24.54211 | 13123 ft | 339 kts | 287° |
| 2026-04-23 11:46 | 37.49797 | 24.51404 | 12541 ft | 338 kts | 288° |
| 2026-04-23 11:46 | 37.50566 | 24.48618 | 11984 ft | 336 kts | 288° |
| 2026-04-23 11:47 | 37.51329 | 24.45848 | 11440 ft | 334 kts | 288° |
| 2026-04-23 11:47 | 37.52090 | 24.43084 | 10938 ft | 333 kts | 288° |
| 2026-04-23 11:47 | 37.52834 | 24.40382 | 10809 ft | 320 kts | 288° |
| 2026-04-23 11:47 | 37.53549 | 24.37782 | 10666 ft | 308 kts | 288° |
| 2026-04-23 11:48 | 37.54238 | 24.35274 | 10516 ft | 298 kts | 288° |
| 2026-04-23 11:48 | 37.54903 | 24.32850 | 10407 ft | 288 kts | 288° |
| 2026-04-23 11:48 | 37.55548 | 24.30502 | 10281 ft | 278 kts | 289° |
| 2026-04-23 11:48 | 37.56292 | 24.28296 | 10173 ft | 270 kts | 295° |
| 2026-04-23 11:49 | 37.57168 | 24.26229 | 10055 ft | 263 kts | 297° |
| 2026-04-23 11:49 | 37.58048 | 24.24234 | 9795 ft | 260 kts | 298° |
| 2026-04-23 11:49 | 37.58922 | 24.22251 | 9492 ft | 258 kts | 298° |
| 2026-04-23 11:49 | 37.59789 | 24.20267 | 9183 ft | 258 kts | 298° |
| 2026-04-23 11:50 | 37.60651 | 24.18282 | 8864 ft | 259 kts | 298° |
| 2026-04-23 11:50 | 37.61514 | 24.16280 | 8536 ft | 259 kts | 298° |
| 2026-04-23 11:50 | 37.62361 | 24.14309 | 8217 ft | 259 kts | 298° |
| 2026-04-23 11:50 | 37.63214 | 24.12319 | 7915 ft | 258 kts | 298° |
| 2026-04-23 11:51 | 37.64065 | 24.10327 | 7613 ft | 257 kts | 299° |
| 2026-04-23 11:51 | 37.64911 | 24.08345 | 7299 ft | 257 kts | 299° |
| 2026-04-23 11:51 | 37.65756 | 24.06360 | 7001 ft | 257 kts | 300° |
| 2026-04-23 11:51 | 37.66602 | 24.04374 | 6695 ft | 257 kts | 300° |
| 2026-04-23 11:52 | 37.67447 | 24.02389 | 6400 ft | 257 kts | 300° |
| 2026-04-23 11:52 | 37.68294 | 24.00391 | 6065 ft | 259 kts | 300° |
| 2026-04-23 11:52 | 37.69145 | 23.98389 | 5737 ft | 259 kts | 301° |
| 2026-04-23 11:52 | 37.69993 | 23.96387 | 5435 ft | 258 kts | 301° |
| 2026-04-23 11:53 | 37.70840 | 23.94383 | 5127 ft | 258 kts | 301° |
| 2026-04-23 11:53 | 37.71690 | 23.92382 | 4814 ft | 259 kts | 301° |
| 2026-04-23 11:53 | 37.72541 | 23.90378 | 4485 ft | 259 kts | 301° |
| 2026-04-23 11:53 | 37.73387 | 23.88379 | 4189 ft | 254 kts | 301° |
| 2026-04-23 11:54 | 37.74207 | 23.86438 | 3893 ft | 248 kts | 301° |
| 2026-04-23 11:54 | 37.75025 | 23.84506 | 3689 ft | 246 kts | 301° |
| 2026-04-23 11:54 | 37.75814 | 23.82634 | 3570 ft | 237 kts | 301° |
| 2026-04-23 11:54 | 37.76692 | 23.80967 | 3437 ft | 219 kts | 322° |
| 2026-04-23 11:55 | 37.78001 | 23.80237 | 3370 ft | 199 kts | 359° |
| 2026-04-23 11:55 | 37.79265 | 23.80581 | 3314 ft | 181 kts | 21° |
| 2026-04-23 11:55 | 37.80396 | 23.81222 | 3126 ft | 171 kts | 27° |
| 2026-04-23 11:55 | 37.81404 | 23.81947 | 2911 ft | 164 kts | 29° |
| 2026-04-23 11:56 | 37.82382 | 23.82689 | 2690 ft | 164 kts | 32° |
| 2026-04-23 11:56 | 37.83313 | 23.83505 | 2489 ft | 162 kts | 35° |
| 2026-04-23 11:56 | 37.84215 | 23.84347 | 2275 ft | 161 kts | 36° |
| 2026-04-23 11:56 | 37.85109 | 23.85193 | 2134 ft | 159 kts | 36° |
| 2026-04-23 11:57 | 37.85966 | 23.86008 | 1907 ft | 146 kts | 36° |
| 2026-04-23 11:57 | 37.86767 | 23.86770 | 1716 ft | 143 kts | 35° |
| 2026-04-23 11:57 | 37.87556 | 23.87520 | 1525 ft | 142 kts | 35° |
| 2026-04-23 11:57 | 37.88339 | 23.88264 | 1345 ft | 140 kts | 36° |
| 2026-04-23 11:58 | 37.89110 | 23.89008 | 1141 ft | 138 kts | 36° |